sensor_id;sensor_type;location;lat;lon;timestamp;temperature;humidity
64918;HTU21D;52176;44.858;38.372;2022-12-20T00:01:09;-2.93;82.25
64918;HTU21D;52176;44.858;38.372;2022-12-20T00:03:35;-2.93;82.08
64918;HTU21D;52176;44.858;38.372;2022-12-20T00:06:01;-2.95;81.69
64918;HTU21D;52176;44.858;38.372;2022-12-20T00:08:27;-2.97;82.02
64918;HTU21D;52176;44.858;38.372;2022-12-20T00:10:53;-3.01;82.03
64918;HTU21D;52176;44.858;38.372;2022-12-20T00:13:19;-3.04;81.91
64918;HTU21D;52176;44.858;38.372;2022-12-20T00:15:44;-3.05;81.92
64918;HTU21D;52176;44.858;38.372;2022-12-20T00:18:10;-3.10;82.23
64918;HTU21D;52176;44.858;38.372;2022-12-20T00:20:36;-3.12;82.14
64918;HTU21D;52176;44.858;38.372;2022-12-20T00:23:02;-3.16;82.28
64918;HTU21D;52176;44.858;38.372;2022-12-20T00:25:28;-3.18;82.40
64918;HTU21D;52176;44.858;38.372;2022-12-20T00:27:54;-3.21;82.66
64918;HTU21D;52176;44.858;38.372;2022-12-20T00:30:19;-3.23;82.71
64918;HTU21D;52176;44.858;38.372;2022-12-20T00:32:45;-3.25;82.52
64918;HTU21D;52176;44.858;38.372;2022-12-20T00:35:12;-3.26;82.67
64918;HTU21D;52176;44.858;38.372;2022-12-20T00:37:38;-3.30;83.07
64918;HTU21D;52176;44.858;38.372;2022-12-20T00:40:04;-3.32;83.04
64918;HTU21D;52176;44.858;38.372;2022-12-20T00:42:30;-3.34;83.20
64918;HTU21D;52176;44.858;38.372;2022-12-20T00:44:56;-3.36;83.13
64918;HTU21D;52176;44.858;38.372;2022-12-20T00:47:22;-3.36;83.26
64918;HTU21D;52176;44.858;38.372;2022-12-20T00:49:48;-3.39;83.39
64918;HTU21D;52176;44.858;38.372;2022-12-20T00:52:14;-3.41;83.55
64918;HTU21D;52176;44.858;38.372;2022-12-20T00:54:39;-3.42;83.65
64918;HTU21D;52176;44.858;38.372;2022-12-20T00:57:05;-3.45;83.73
64918;HTU21D;52176;44.858;38.372;2022-12-20T00:59:32;-3.47;83.62
64918;HTU21D;52176;44.858;38.372;2022-12-20T01:01:58;-3.48;83.71
64918;HTU21D;52176;44.858;38.372;2022-12-20T01:04:24;-3.49;83.90
64918;HTU21D;52176;44.858;38.372;2022-12-20T01:06:51;-3.52;83.65
64918;HTU21D;52176;44.858;38.372;2022-12-20T01:09:17;-3.53;83.58
64918;HTU21D;52176;44.858;38.372;2022-12-20T01:11:43;-3.53;83.64
64918;HTU21D;52176;44.858;38.372;2022-12-20T01:14:10;-3.56;83.91
64918;HTU21D;52176;44.858;38.372;2022-12-20T01:16:39;-3.58;83.82
64918;HTU21D;52176;44.858;38.372;2022-12-20T01:19:05;-3.62;83.88
64918;HTU21D;52176;44.858;38.372;2022-12-20T01:21:31;-3.62;83.96
64918;HTU21D;52176;44.858;38.372;2022-12-20T01:23:57;-3.65;83.94
64918;HTU21D;52176;44.858;38.372;2022-12-20T01:26:24;-3.67;83.81
64918;HTU21D;52176;44.858;38.372;2022-12-20T01:28:51;-3.69;83.65
64918;HTU21D;52176;44.858;38.372;2022-12-20T01:31:18;-3.71;83.68
64918;HTU21D;52176;44.858;38.372;2022-12-20T01:33:45;-3.76;83.67
64918;HTU21D;52176;44.858;38.372;2022-12-20T01:36:13;-3.78;83.78
64918;HTU21D;52176;44.858;38.372;2022-12-20T01:38:39;-3.82;83.65
64918;HTU21D;52176;44.858;38.372;2022-12-20T01:41:05;-3.83;83.61
64918;HTU21D;52176;44.858;38.372;2022-12-20T01:43:48;-3.87;83.47
64918;HTU21D;52176;44.858;38.372;2022-12-20T01:46:14;-3.90;83.33
64918;HTU21D;52176;44.858;38.372;2022-12-20T01:48:41;-3.94;83.27
64918;HTU21D;52176;44.858;38.372;2022-12-20T01:51:09;-3.96;83.18
64918;HTU21D;52176;44.858;38.372;2022-12-20T01:53:35;-3.99;83.32
64918;HTU21D;52176;44.858;38.372;2022-12-20T01:56:03;-4.00;83.30
64918;HTU21D;52176;44.858;38.372;2022-12-20T01:58:29;-4.04;83.42
64918;HTU21D;52176;44.858;38.372;2022-12-20T02:00:55;-4.06;83.55
64918;HTU21D;52176;44.858;38.372;2022-12-20T02:03:21;-4.08;83.33
64918;HTU21D;52176;44.858;38.372;2022-12-20T02:05:47;-4.09;83.11
64918;HTU21D;52176;44.858;38.372;2022-12-20T02:08:15;-4.10;82.99
64918;HTU21D;52176;44.858;38.372;2022-12-20T02:10:47;-4.13;82.91
64918;HTU21D;52176;44.858;38.372;2022-12-20T02:13:19;-4.15;82.96
64918;HTU21D;52176;44.858;38.372;2022-12-20T02:15:50;-4.20;82.91
64918;HTU21D;52176;44.858;38.372;2022-12-20T02:18:26;-4.21;82.81
64918;HTU21D;52176;44.858;38.372;2022-12-20T02:26:03;-4.34;82.56
64918;HTU21D;52176;44.858;38.372;2022-12-20T02:28:44;-4.38;82.51
64918;HTU21D;52176;44.858;38.372;2022-12-20T02:31:19;-4.42;82.49
64918;HTU21D;52176;44.858;38.372;2022-12-20T02:33:49;-4.44;82.49
64918;HTU21D;52176;44.858;38.372;2022-12-20T02:36:16;-4.48;82.45
64918;HTU21D;52176;44.858;38.372;2022-12-20T02:38:44;-4.49;82.42
64918;HTU21D;52176;44.858;38.372;2022-12-20T02:43:36;-4.55;82.35
64918;HTU21D;52176;44.858;38.372;2022-12-20T02:46:22;-4.56;82.42
64918;HTU21D;52176;44.858;38.372;2022-12-20T02:48:50;-4.58;82.39
64918;HTU21D;52176;44.858;38.372;2022-12-20T02:51:16;-4.58;82.36
64918;HTU21D;52176;44.858;38.372;2022-12-20T02:53:43;-4.60;82.30
64918;HTU21D;52176;44.858;38.372;2022-12-20T02:58:59;-4.65;82.31
64918;HTU21D;52176;44.858;38.372;2022-12-20T03:01:36;-4.66;82.23
64918;HTU21D;52176;44.858;38.372;2022-12-20T03:04:03;-4.68;82.19
64918;HTU21D;52176;44.858;38.372;2022-12-20T03:06:30;-4.70;82.20
64918;HTU21D;52176;44.858;38.372;2022-12-20T03:08:56;-4.73;82.23
64918;HTU21D;52176;44.858;38.372;2022-12-20T03:11:25;-4.74;82.15
64918;HTU21D;52176;44.858;38.372;2022-12-20T03:13:52;-4.78;82.13
64918;HTU21D;52176;44.858;38.372;2022-12-20T03:16:18;-4.78;82.09
64918;HTU21D;52176;44.858;38.372;2022-12-20T03:18:44;-4.80;82.14
64918;HTU21D;52176;44.858;38.372;2022-12-20T03:21:10;-4.80;82.11
64918;HTU21D;52176;44.858;38.372;2022-12-20T03:23:36;-4.81;82.14
64918;HTU21D;52176;44.858;38.372;2022-12-20T03:26:02;-4.83;82.14
64918;HTU21D;52176;44.858;38.372;2022-12-20T03:28:37;-4.85;82.07
64918;HTU21D;52176;44.858;38.372;2022-12-20T03:31:04;-4.87;82.04
64918;HTU21D;52176;44.858;38.372;2022-12-20T03:33:36;-4.90;82.05
64918;HTU21D;52176;44.858;38.372;2022-12-20T03:36:05;-4.94;82.07
64918;HTU21D;52176;44.858;38.372;2022-12-20T03:38:31;-4.96;82.07
64918;HTU21D;52176;44.858;38.372;2022-12-20T03:40:57;-5.00;82.05
64918;HTU21D;52176;44.858;38.372;2022-12-20T03:43:22;-5.05;82.09
64918;HTU21D;52176;44.858;38.372;2022-12-20T03:45:48;-5.08;82.10
64918;HTU21D;52176;44.858;38.372;2022-12-20T03:48:14;-5.12;82.09
64918;HTU21D;52176;44.858;38.372;2022-12-20T03:50:40;-5.16;82.10
64918;HTU21D;52176;44.858;38.372;2022-12-20T03:53:07;-5.19;82.10
64918;HTU21D;52176;44.858;38.372;2022-12-20T03:55:33;-5.24;82.07
64918;HTU21D;52176;44.858;38.372;2022-12-20T03:57:59;-5.31;82.07
64918;HTU21D;52176;44.858;38.372;2022-12-20T04:00:31;-5.34;82.13
64918;HTU21D;52176;44.858;38.372;2022-12-20T04:03:17;-5.38;82.15
64918;HTU21D;52176;44.858;38.372;2022-12-20T04:05:43;-5.43;82.08
64918;HTU21D;52176;44.858;38.372;2022-12-20T04:08:10;-5.48;82.07
64918;HTU21D;52176;44.858;38.372;2022-12-20T04:10:38;-5.52;82.10
64918;HTU21D;52176;44.858;38.372;2022-12-20T04:13:28;-5.56;82.15
64918;HTU21D;52176;44.858;38.372;2022-12-20T04:15:55;-5.59;82.13
64918;HTU21D;52176;44.858;38.372;2022-12-20T04:18:23;-5.61;82.17
64918;HTU21D;52176;44.858;38.372;2022-12-20T04:20:53;-5.63;82.15
64918;HTU21D;52176;44.858;38.372;2022-12-20T04:23:24;-5.67;82.08
64918;HTU21D;52176;44.858;38.372;2022-12-20T04:25:50;-5.71;82.08
64918;HTU21D;52176;44.858;38.372;2022-12-20T04:28:16;-5.73;82.18
64918;HTU21D;52176;44.858;38.372;2022-12-20T04:30:42;-5.75;82.14
64918;HTU21D;52176;44.858;38.372;2022-12-20T04:33:09;-5.75;82.08
64918;HTU21D;52176;44.858;38.372;2022-12-20T04:35:35;-5.77;82.05
64918;HTU21D;52176;44.858;38.372;2022-12-20T04:38:01;-5.77;82.07
64918;HTU21D;52176;44.858;38.372;2022-12-20T04:40:28;-5.78;81.99
64918;HTU21D;52176;44.858;38.372;2022-12-20T04:42:56;-5.82;81.96
64918;HTU21D;52176;44.858;38.372;2022-12-20T04:45:22;-5.86;81.94
64918;HTU21D;52176;44.858;38.372;2022-12-20T04:47:50;-5.89;82.00
64918;HTU21D;52176;44.858;38.372;2022-12-20T04:50:22;-5.92;81.97
64918;HTU21D;52176;44.858;38.372;2022-12-20T04:52:48;-5.93;81.94
64918;HTU21D;52176;44.858;38.372;2022-12-20T04:55:36;-5.98;81.90
64918;HTU21D;52176;44.858;38.372;2022-12-20T04:58:03;-6.03;81.93
64918;HTU21D;52176;44.858;38.372;2022-12-20T05:00:29;-6.07;81.93
64918;HTU21D;52176;44.858;38.372;2022-12-20T05:03:04;-6.11;81.95
64918;HTU21D;52176;44.858;38.372;2022-12-20T05:05:30;-6.12;81.97
64918;HTU21D;52176;44.858;38.372;2022-12-20T05:07:56;-6.14;81.94
64918;HTU21D;52176;44.858;38.372;2022-12-20T05:10:23;-6.17;81.96
64918;HTU21D;52176;44.858;38.372;2022-12-20T05:12:50;-6.17;81.99
64918;HTU21D;52176;44.858;38.372;2022-12-20T05:15:26;-6.16;81.95
64918;HTU21D;52176;44.858;38.372;2022-12-20T05:17:52;-6.15;81.97
64918;HTU21D;52176;44.858;38.372;2022-12-20T05:20:25;-6.14;81.94
64918;HTU21D;52176;44.858;38.372;2022-12-20T05:22:52;-6.12;81.91
64918;HTU21D;52176;44.858;38.372;2022-12-20T05:25:37;-6.08;81.90
64918;HTU21D;52176;44.858;38.372;2022-12-20T05:28:22;-6.06;81.85
64918;HTU21D;52176;44.858;38.372;2022-12-20T05:30:49;-6.05;81.85
64918;HTU21D;52176;44.858;38.372;2022-12-20T05:33:14;-6.02;81.81
64918;HTU21D;52176;44.858;38.372;2022-12-20T05:35:42;-6.00;81.82
64918;HTU21D;52176;44.858;38.372;2022-12-20T05:38:11;-5.99;81.82
64918;HTU21D;52176;44.858;38.372;2022-12-20T05:40:38;-5.97;81.81
64918;HTU21D;52176;44.858;38.372;2022-12-20T05:43:04;-5.92;81.80
64918;HTU21D;52176;44.858;38.372;2022-12-20T05:45:39;-5.86;81.81
64918;HTU21D;52176;44.858;38.372;2022-12-20T05:48:11;-5.82;81.81
64918;HTU21D;52176;44.858;38.372;2022-12-20T05:50:40;-5.74;81.75
64918;HTU21D;52176;44.858;38.372;2022-12-20T05:53:28;-5.68;81.72
64918;HTU21D;52176;44.858;38.372;2022-12-20T05:55:57;-5.60;81.68
64918;HTU21D;52176;44.858;38.372;2022-12-20T05:58:28;-5.54;81.62
64918;HTU21D;52176;44.858;38.372;2022-12-20T06:01:02;-5.48;81.64
64918;HTU21D;52176;44.858;38.372;2022-12-20T06:03:32;-5.42;81.61
64918;HTU21D;52176;44.858;38.372;2022-12-20T06:06:01;-5.35;81.52
64918;HTU21D;52176;44.858;38.372;2022-12-20T06:08:29;-5.27;81.47
64918;HTU21D;52176;44.858;38.372;2022-12-20T06:10:57;-5.20;81.43
64918;HTU21D;52176;44.858;38.372;2022-12-20T06:13:24;-5.12;81.39
64918;HTU21D;52176;44.858;38.372;2022-12-20T06:15:52;-5.05;81.37
64918;HTU21D;52176;44.858;38.372;2022-12-20T06:18:19;-4.97;81.38
64918;HTU21D;52176;44.858;38.372;2022-12-20T06:20:50;-4.86;81.46
64918;HTU21D;52176;44.858;38.372;2022-12-20T06:23:20;-4.72;81.79
64918;HTU21D;52176;44.858;38.372;2022-12-20T06:25:54;-4.51;81.61
64918;HTU21D;52176;44.858;38.372;2022-12-20T06:28:21;-4.25;81.55
64918;HTU21D;52176;44.858;38.372;2022-12-20T06:30:52;-3.97;81.49
64918;HTU21D;52176;44.858;38.372;2022-12-20T06:33:29;-3.69;81.43
64918;HTU21D;52176;44.858;38.372;2022-12-20T06:35:55;-3.47;81.59
64918;HTU21D;52176;44.858;38.372;2022-12-20T06:38:22;-3.27;81.44
64918;HTU21D;52176;44.858;38.372;2022-12-20T06:40:48;-3.06;81.31
64918;HTU21D;52176;44.858;38.372;2022-12-20T06:43:14;-2.87;81.57
64918;HTU21D;52176;44.858;38.372;2022-12-20T06:45:41;-2.71;81.75
64918;HTU21D;52176;44.858;38.372;2022-12-20T06:48:08;-2.57;81.55
64918;HTU21D;52176;44.858;38.372;2022-12-20T06:50:37;-2.41;81.34
64918;HTU21D;52176;44.858;38.372;2022-12-20T06:53:05;-2.23;81.58
64918;HTU21D;52176;44.858;38.372;2022-12-20T06:55:31;-2.09;81.33
64918;HTU21D;52176;44.858;38.372;2022-12-20T06:57:57;-1.93;81.17
64918;HTU21D;52176;44.858;38.372;2022-12-20T07:00:24;-1.77;80.98
64918;HTU21D;52176;44.858;38.372;2022-12-20T07:02:50;-1.65;80.94
64918;HTU21D;52176;44.858;38.372;2022-12-20T07:05:15;-1.54;80.83
64918;HTU21D;52176;44.858;38.372;2022-12-20T07:07:41;-1.34;80.72
64918;HTU21D;52176;44.858;38.372;2022-12-20T07:10:07;-1.15;80.99
64918;HTU21D;52176;44.858;38.372;2022-12-20T07:12:33;-1.04;80.62
64918;HTU21D;52176;44.858;38.372;2022-12-20T07:14:59;-0.94;80.78
64918;HTU21D;52176;44.858;38.372;2022-12-20T07:17:25;-0.87;80.85
64918;HTU21D;52176;44.858;38.372;2022-12-20T07:19:51;-0.83;80.65
64918;HTU21D;52176;44.858;38.372;2022-12-20T07:22:16;-0.72;80.65
64918;HTU21D;52176;44.858;38.372;2022-12-20T07:24:42;-0.65;80.56
64918;HTU21D;52176;44.858;38.372;2022-12-20T07:27:09;-0.56;80.56
64918;HTU21D;52176;44.858;38.372;2022-12-20T07:29:35;-0.51;80.36
64918;HTU21D;52176;44.858;38.372;2022-12-20T07:32:01;-0.46;80.27
64918;HTU21D;52176;44.858;38.372;2022-12-20T07:34:27;-0.38;80.29
64918;HTU21D;52176;44.858;38.372;2022-12-20T07:36:53;-0.29;80.25
64918;HTU21D;52176;44.858;38.372;2022-12-20T07:39:18;-0.17;80.25
64918;HTU21D;52176;44.858;38.372;2022-12-20T07:41:44;-0.06;80.04
64918;HTU21D;52176;44.858;38.372;2022-12-20T07:44:17;0.05;80.07
64918;HTU21D;52176;44.858;38.372;2022-12-20T07:46:44;0.20;79.93
64918;HTU21D;52176;44.858;38.372;2022-12-20T07:49:09;0.37;79.86
64918;HTU21D;52176;44.858;38.372;2022-12-20T07:51:37;0.53;79.34
64918;HTU21D;52176;44.858;38.372;2022-12-20T07:54:25;0.67;78.81
64918;HTU21D;52176;44.858;38.372;2022-12-20T07:56:52;0.84;78.63
64918;HTU21D;52176;44.858;38.372;2022-12-20T07:59:20;1.01;77.82
64918;HTU21D;52176;44.858;38.372;2022-12-20T08:01:49;1.13;77.22
64918;HTU21D;52176;44.858;38.372;2022-12-20T08:04:19;1.25;77.37
64918;HTU21D;52176;44.858;38.372;2022-12-20T08:06:46;1.37;76.50
64918;HTU21D;52176;44.858;38.372;2022-12-20T08:09:12;1.49;77.02
64918;HTU21D;52176;44.858;38.372;2022-12-20T08:11:38;1.62;76.18
64918;HTU21D;52176;44.858;38.372;2022-12-20T08:14:05;1.68;75.84
64918;HTU21D;52176;44.858;38.372;2022-12-20T08:16:32;1.82;76.05
64918;HTU21D;52176;44.858;38.372;2022-12-20T08:18:59;1.99;75.51
64918;HTU21D;52176;44.858;38.372;2022-12-20T08:21:24;2.07;74.96
64918;HTU21D;52176;44.858;38.372;2022-12-20T08:23:50;2.08;74.92
64918;HTU21D;52176;44.858;38.372;2022-12-20T08:26:16;2.17;74.15
64918;HTU21D;52176;44.858;38.372;2022-12-20T08:28:42;0.00;73.82
64918;HTU21D;52176;44.858;38.372;2022-12-20T08:31:09;2.16;74.37
64918;HTU21D;52176;44.858;38.372;2022-12-20T08:33:35;2.26;74.99
64918;HTU21D;52176;44.858;38.372;2022-12-20T08:36:03;2.40;74.60
64918;HTU21D;52176;44.858;38.372;2022-12-20T08:38:29;2.47;74.06
64918;HTU21D;52176;44.858;38.372;2022-12-20T08:41:06;2.51;73.26
64918;HTU21D;52176;44.858;38.372;2022-12-20T08:43:32;2.54;74.04
64918;HTU21D;52176;44.858;38.372;2022-12-20T08:45:58;2.61;73.59
64918;HTU21D;52176;44.858;38.372;2022-12-20T08:48:25;2.62;73.30
64918;HTU21D;52176;44.858;38.372;2022-12-20T08:50:54;2.66;73.96
64918;HTU21D;52176;44.858;38.372;2022-12-20T08:53:20;2.71;74.20
64918;HTU21D;52176;44.858;38.372;2022-12-20T08:55:46;2.71;73.47
64918;HTU21D;52176;44.858;38.372;2022-12-20T08:58:12;2.68;74.25
64918;HTU21D;52176;44.858;38.372;2022-12-20T09:00:38;2.68;74.26
64918;HTU21D;52176;44.858;38.372;2022-12-20T09:03:03;2.69;74.59
64918;HTU21D;52176;44.858;38.372;2022-12-20T09:05:29;2.68;73.69
64918;HTU21D;52176;44.858;38.372;2022-12-20T09:07:55;2.66;74.38
64918;HTU21D;52176;44.858;38.372;2022-12-20T09:10:21;2.65;74.16
64918;HTU21D;52176;44.858;38.372;2022-12-20T09:12:47;2.62;73.67
64918;HTU21D;52176;44.858;38.372;2022-12-20T09:15:12;2.61;72.99
64918;HTU21D;52176;44.858;38.372;2022-12-20T09:17:38;2.55;72.40
64918;HTU21D;52176;44.858;38.372;2022-12-20T09:20:04;2.55;72.53
64918;HTU21D;52176;44.858;38.372;2022-12-20T09:22:30;2.58;72.18
64918;HTU21D;52176;44.858;38.372;2022-12-20T09:24:56;2.65;72.58
64918;HTU21D;52176;44.858;38.372;2022-12-20T09:27:22;2.69;71.95
64918;HTU21D;52176;44.858;38.372;2022-12-20T09:29:48;2.82;72.37
64918;HTU21D;52176;44.858;38.372;2022-12-20T09:32:14;3.01;72.41
64918;HTU21D;52176;44.858;38.372;2022-12-20T09:34:39;3.26;71.50
64918;HTU21D;52176;44.858;38.372;2022-12-20T09:37:05;3.42;70.60
64918;HTU21D;52176;44.858;38.372;2022-12-20T09:39:31;3.53;70.68
64918;HTU21D;52176;44.858;38.372;2022-12-20T09:41:57;3.61;70.21
64918;HTU21D;52176;44.858;38.372;2022-12-20T09:44:24;3.72;70.52
64918;HTU21D;52176;44.858;38.372;2022-12-20T09:46:53;3.84;69.35
64918;HTU21D;52176;44.858;38.372;2022-12-20T09:49:19;3.83;68.39
64918;HTU21D;52176;44.858;38.372;2022-12-20T09:56:43;3.55;69.49
64918;HTU21D;52176;44.858;38.372;2022-12-20T09:59:17;3.27;70.20
64918;HTU21D;52176;44.858;38.372;2022-12-20T10:01:47;2.99;70.33
64918;HTU21D;52176;44.858;38.372;2022-12-20T10:04:24;2.80;71.10
64918;HTU21D;52176;44.858;38.372;2022-12-20T10:16:50;2.31;71.58
64918;HTU21D;52176;44.858;38.372;2022-12-20T10:20:18;2.28;71.58
64918;HTU21D;52176;44.858;38.372;2022-12-20T10:24:44;2.14;70.27
64918;HTU21D;52176;44.858;38.372;2022-12-20T10:27:19;2.08;70.58
64918;HTU21D;52176;44.858;38.372;2022-12-20T10:29:45;2.02;70.35
64918;HTU21D;52176;44.858;38.372;2022-12-20T10:32:13;2.00;69.88
64918;HTU21D;52176;44.858;38.372;2022-12-20T10:34:42;1.99;69.94
64918;HTU21D;52176;44.858;38.372;2022-12-20T10:37:13;1.98;70.35
64918;HTU21D;52176;44.858;38.372;2022-12-20T10:39:41;1.97;70.62
64918;HTU21D;52176;44.858;38.372;2022-12-20T10:44:48;2.00;69.90
64918;HTU21D;52176;44.858;38.372;2022-12-20T10:52:39;1.99;69.57
64918;HTU21D;52176;44.858;38.372;2022-12-20T10:55:23;1.98;69.62
64918;HTU21D;52176;44.858;38.372;2022-12-20T10:57:50;1.99;69.81
64918;HTU21D;52176;44.858;38.372;2022-12-20T11:00:27;2.00;70.29
64918;HTU21D;52176;44.858;38.372;2022-12-20T11:05:38;2.03;69.49
64918;HTU21D;52176;44.858;38.372;2022-12-20T11:10:33;2.07;69.13
64918;HTU21D;52176;44.858;38.372;2022-12-20T11:12:59;2.07;68.74
64918;HTU21D;52176;44.858;38.372;2022-12-20T11:15:30;2.07;68.58
64918;HTU21D;52176;44.858;38.372;2022-12-20T11:18:07;2.07;68.96
64918;HTU21D;52176;44.858;38.372;2022-12-20T11:20:56;2.08;68.58
64918;HTU21D;52176;44.858;38.372;2022-12-20T11:23:44;2.09;68.72
64918;HTU21D;52176;44.858;38.372;2022-12-20T11:29:14;2.10;68.49
64918;HTU21D;52176;44.858;38.372;2022-12-20T11:34:32;2.09;67.89
64918;HTU21D;52176;44.858;38.372;2022-12-20T11:39:34;2.12;68.71
64918;HTU21D;52176;44.858;38.372;2022-12-20T11:42:04;2.14;68.65
64918;HTU21D;52176;44.858;38.372;2022-12-20T11:52:18;2.16;68.36
64918;HTU21D;52176;44.858;38.372;2022-12-20T11:54:46;2.16;68.48
64918;HTU21D;52176;44.858;38.372;2022-12-20T11:57:17;2.16;67.70
64918;HTU21D;52176;44.858;38.372;2022-12-20T11:59:49;2.16;68.33
64918;HTU21D;52176;44.858;38.372;2022-12-20T12:04:49;2.17;67.91
64918;HTU21D;52176;44.858;38.372;2022-12-20T12:07:18;2.19;68.20
64918;HTU21D;52176;44.858;38.372;2022-12-20T12:10:02;2.19;68.43
64918;HTU21D;52176;44.858;38.372;2022-12-20T12:12:35;2.19;68.76
64918;HTU21D;52176;44.858;38.372;2022-12-20T12:17:39;2.20;68.88
64918;HTU21D;52176;44.858;38.372;2022-12-20T12:20:13;2.19;68.95
64918;HTU21D;52176;44.858;38.372;2022-12-20T12:22:39;2.19;68.91
64918;HTU21D;52176;44.858;38.372;2022-12-20T12:25:08;2.17;69.00
64918;HTU21D;52176;44.858;38.372;2022-12-20T12:27:35;2.15;68.70
64918;HTU21D;52176;44.858;38.372;2022-12-20T12:30:03;2.14;68.89
64918;HTU21D;52176;44.858;38.372;2022-12-20T12:32:39;2.14;69.30
64918;HTU21D;52176;44.858;38.372;2022-12-20T12:35:14;2.13;69.29
64918;HTU21D;52176;44.858;38.372;2022-12-20T12:50:47;1.99;69.80
64918;HTU21D;52176;44.858;38.372;2022-12-20T12:55:41;1.94;69.84
64918;HTU21D;52176;44.858;38.372;2022-12-20T12:58:50;1.92;70.15
64918;HTU21D;52176;44.858;38.372;2022-12-20T13:00:58;1.90;70.26
64918;HTU21D;52176;44.858;38.372;2022-12-20T13:03:35;1.86;70.27
64918;HTU21D;52176;44.858;38.372;2022-12-20T13:08:46;1.83;70.80
64918;HTU21D;52176;44.858;38.372;2022-12-20T13:11:14;1.78;70.87
64918;HTU21D;52176;44.858;38.372;2022-12-20T13:14:09;1.75;71.16
64918;HTU21D;52176;44.858;38.372;2022-12-20T13:16:37;1.71;71.33
64918;HTU21D;52176;44.858;38.372;2022-12-20T13:19:10;1.69;71.47
64918;HTU21D;52176;44.858;38.372;2022-12-20T13:21:36;1.64;71.51
64918;HTU21D;52176;44.858;38.372;2022-12-20T13:26:50;1.53;71.68
64918;HTU21D;52176;44.858;38.372;2022-12-20T13:29:21;1.47;71.81
64918;HTU21D;52176;44.858;38.372;2022-12-20T13:31:47;1.39;71.91
64918;HTU21D;52176;44.858;38.372;2022-12-20T13:36:58;1.25;72.16
64918;HTU21D;52176;44.858;38.372;2022-12-20T13:42:05;1.11;72.38
64918;HTU21D;52176;44.858;38.372;2022-12-20T13:44:40;1.05;72.50
64918;HTU21D;52176;44.858;38.372;2022-12-20T13:49:39;0.93;72.66
64918;HTU21D;52176;44.858;38.372;2022-12-20T13:52:06;0.86;72.77
64918;HTU21D;52176;44.858;38.372;2022-12-20T13:54:33;0.80;72.82
64918;HTU21D;52176;44.858;38.372;2022-12-20T13:57:00;0.73;72.91
64918;HTU21D;52176;44.858;38.372;2022-12-20T13:59:30;0.65;72.93
64918;HTU21D;52176;44.858;38.372;2022-12-20T14:02:01;0.55;72.99
64918;HTU21D;52176;44.858;38.372;2022-12-20T14:04:41;0.46;73.09
64918;HTU21D;52176;44.858;38.372;2022-12-20T14:07:08;0.34;73.19
64918;HTU21D;52176;44.858;38.372;2022-12-20T14:09:37;0.24;73.26
64918;HTU21D;52176;44.858;38.372;2022-12-20T14:12:04;0.16;73.35
64918;HTU21D;52176;44.858;38.372;2022-12-20T14:14:35;0.05;73.46
64918;HTU21D;52176;44.858;38.372;2022-12-20T14:19:45;-0.12;73.57
64918;HTU21D;52176;44.858;38.372;2022-12-20T14:22:11;-0.23;73.67
64918;HTU21D;52176;44.858;38.372;2022-12-20T14:24:40;-0.31;73.75
64918;HTU21D;52176;44.858;38.372;2022-12-20T14:27:08;-0.39;73.86
64918;HTU21D;52176;44.858;38.372;2022-12-20T14:29:36;-0.47;73.90
64918;HTU21D;52176;44.858;38.372;2022-12-20T14:32:02;-0.55;73.96
64918;HTU21D;52176;44.858;38.372;2022-12-20T14:34:28;-0.62;74.01
64918;HTU21D;52176;44.858;38.372;2022-12-20T14:39:52;-0.75;74.14
64918;HTU21D;52176;44.858;38.372;2022-12-20T14:42:18;-0.84;74.16
64918;HTU21D;52176;44.858;38.372;2022-12-20T14:44:45;-0.91;74.18
64918;HTU21D;52176;44.858;38.372;2022-12-20T14:47:22;-0.99;74.25
64918;HTU21D;52176;44.858;38.372;2022-12-20T14:50:16;-1.06;74.29
64918;HTU21D;52176;44.858;38.372;2022-12-20T14:52:38;-1.14;74.41
64918;HTU21D;52176;44.858;38.372;2022-12-20T14:55:05;-1.19;74.47
64918;HTU21D;52176;44.858;38.372;2022-12-20T15:10:42;-1.49;74.71
64918;HTU21D;52176;44.858;38.372;2022-12-20T15:13:13;-1.53;74.74
64918;HTU21D;52176;44.858;38.372;2022-12-20T15:15:39;-1.54;74.80
64918;HTU21D;52176;44.858;38.372;2022-12-20T15:20:38;-1.61;74.84
64918;HTU21D;52176;44.858;38.372;2022-12-20T15:23:04;-1.64;74.86
64918;HTU21D;52176;44.858;38.372;2022-12-20T15:25:31;-1.69;74.89
64918;HTU21D;52176;44.858;38.372;2022-12-20T15:27:58;-1.73;74.92
64918;HTU21D;52176;44.858;38.372;2022-12-20T15:30:24;-1.82;74.92
64918;HTU21D;52176;44.858;38.372;2022-12-20T15:32:49;-1.86;74.98
64918;HTU21D;52176;44.858;38.372;2022-12-20T15:35:15;-1.93;75.02
64918;HTU21D;52176;44.858;38.372;2022-12-20T15:37:41;-1.98;75.02
64918;HTU21D;52176;44.858;38.372;2022-12-20T15:40:09;-2.04;75.05
64918;HTU21D;52176;44.858;38.372;2022-12-20T15:42:37;-2.08;75.05
64918;HTU21D;52176;44.858;38.372;2022-12-20T15:45:04;-2.15;75.09
64918;HTU21D;52176;44.858;38.372;2022-12-20T15:47:29;-2.20;75.12
64918;HTU21D;52176;44.858;38.372;2022-12-20T15:49:55;-2.26;75.15
64918;HTU21D;52176;44.858;38.372;2022-12-20T15:52:22;-2.28;75.18
64918;HTU21D;52176;44.858;38.372;2022-12-20T15:54:48;-2.31;75.20
64918;HTU21D;52176;44.858;38.372;2022-12-20T15:57:14;-2.32;75.25
64918;HTU21D;52176;44.858;38.372;2022-12-20T15:59:40;-2.33;75.31
64918;HTU21D;52176;44.858;38.372;2022-12-20T16:02:25;-2.32;75.33
64918;HTU21D;52176;44.858;38.372;2022-12-20T16:04:51;-2.35;75.35
64918;HTU21D;52176;44.858;38.372;2022-12-20T16:07:18;-2.36;75.38
64918;HTU21D;52176;44.858;38.372;2022-12-20T16:09:43;-2.38;75.48
64918;HTU21D;52176;44.858;38.372;2022-12-20T16:12:16;-2.38;75.57
64918;HTU21D;52176;44.858;38.372;2022-12-20T16:14:42;-2.38;75.63
64918;HTU21D;52176;44.858;38.372;2022-12-20T16:17:11;-2.38;75.70
64918;HTU21D;52176;44.858;38.372;2022-12-20T16:19:37;-2.39;75.72
64918;HTU21D;52176;44.858;38.372;2022-12-20T16:22:02;-2.41;75.70
64918;HTU21D;52176;44.858;38.372;2022-12-20T16:24:28;-2.47;75.78
64918;HTU21D;52176;44.858;38.372;2022-12-20T16:26:54;-2.52;75.70
64918;HTU21D;52176;44.858;38.372;2022-12-20T16:29:20;-2.61;75.68
64918;HTU21D;52176;44.858;38.372;2022-12-20T16:31:47;-2.67;75.81
64918;HTU21D;52176;44.858;38.372;2022-12-20T16:34:13;-2.72;75.85
64918;HTU21D;52176;44.858;38.372;2022-12-20T16:36:40;-2.75;75.89
64918;HTU21D;52176;44.858;38.372;2022-12-20T16:39:06;-2.78;75.90
64918;HTU21D;52176;44.858;38.372;2022-12-20T16:41:34;-2.82;75.91
64918;HTU21D;52176;44.858;38.372;2022-12-20T16:44:01;-2.86;75.93
64918;HTU21D;52176;44.858;38.372;2022-12-20T16:46:27;-2.89;75.92
64918;HTU21D;52176;44.858;38.372;2022-12-20T16:48:54;-2.95;75.95
64918;HTU21D;52176;44.858;38.372;2022-12-20T16:51:22;-3.01;75.95
64918;HTU21D;52176;44.858;38.372;2022-12-20T16:53:58;-3.07;76.01
64918;HTU21D;52176;44.858;38.372;2022-12-20T16:56:25;-3.11;75.98
64918;HTU21D;52176;44.858;38.372;2022-12-20T16:58:51;-3.15;76.00
64918;HTU21D;52176;44.858;38.372;2022-12-20T17:01:21;-3.18;76.06
64918;HTU21D;52176;44.858;38.372;2022-12-20T17:03:50;-3.21;76.15
64918;HTU21D;52176;44.858;38.372;2022-12-20T17:06:17;-3.24;76.14
64918;HTU21D;52176;44.858;38.372;2022-12-20T17:08:43;-3.28;76.17